createdAt,value
2019-01-18T00:00:20.854Z,1.04
2019-01-18T00:01:28.974Z,1.09
2019-01-18T00:02:36.967Z,1.05
2019-01-18T00:03:45.087Z,0.94
2019-01-18T00:04:53.081Z,1.04
2019-01-18T00:06:01.169Z,0.93
2019-01-18T00:07:09.168Z,0.96
2019-01-18T00:08:17.245Z,0.91
2019-01-18T00:09:25.298Z,0.90
2019-01-18T00:10:33.400Z,0.84
2019-01-18T00:11:41.378Z,0.93
2019-01-18T00:12:49.497Z,0.90
2019-01-18T00:13:57.508Z,0.97
2019-01-18T00:15:05.590Z,0.83
2019-01-18T00:16:13.608Z,0.87
2019-01-18T00:17:21.661Z,0.88
2019-01-18T00:18:29.705Z,0.88
2019-01-18T00:19:37.759Z,0.86
2019-01-18T00:20:45.814Z,0.84
2019-01-18T00:21:53.924Z,0.86
2019-01-18T00:23:01.925Z,0.75
2019-01-18T00:24:10.032Z,0.78
2019-01-18T00:25:18.025Z,0.76
2019-01-18T00:26:26.100Z,0.75
2019-01-18T00:27:34.150Z,0.70
2019-01-18T00:28:42.204Z,0.70
2019-01-18T00:29:50.237Z,0.73
2019-01-18T00:30:58.364Z,0.70
2019-01-18T00:32:06.345Z,0.75
2019-01-18T00:33:14.429Z,0.75
2019-01-18T00:34:22.474Z,0.72
2019-01-18T00:35:30.507Z,0.73
2019-01-18T00:36:38.556Z,0.70
2019-01-18T00:37:46.617Z,0.68
2019-01-18T00:38:54.667Z,0.73
2019-01-18T00:40:02.697Z,0.73
2019-01-18T00:41:10.780Z,0.70
2019-01-18T00:42:18.800Z,0.73
2019-01-18T00:43:26.870Z,0.70
2019-01-18T00:44:34.914Z,0.70
2019-01-18T00:45:42.990Z,0.62
2019-01-18T00:46:51.024Z,0.65
2019-01-18T00:47:59.077Z,0.68
2019-01-18T00:49:07.186Z,0.62
2019-01-18T00:50:15.196Z,0.57
2019-01-18T00:51:23.300Z,0.50
2019-01-18T00:52:31.305Z,0.49
2019-01-18T00:53:39.323Z,0.44
2019-01-18T00:54:47.411Z,0.41
2019-01-18T00:55:55.451Z,0.42
2019-01-18T00:57:03.511Z,0.35
2019-01-18T00:58:11.588Z,0.29
2019-01-18T00:59:19.608Z,0.28
2019-01-18T01:00:27.639Z,0.39
2019-01-18T01:01:35.706Z,0.29
2019-01-18T01:02:43.780Z,0.26
2019-01-18T01:03:51.816Z,0.26
2019-01-18T01:04:59.887Z,0.32
2019-01-18T01:06:07.969Z,0.17
2019-01-18T01:07:15.999Z,0.08
2019-01-18T01:08:24.029Z,0.21
2019-01-18T01:09:32.111Z,0.14
2019-01-18T01:10:40.156Z,0.20
2019-01-18T01:11:48.186Z,0.08
2019-01-18T01:12:56.245Z,0.11
2019-01-18T01:14:04.304Z,0.07
2019-01-18T01:15:12.344Z,0.17
2019-01-18T01:16:20.391Z,0.17
2019-01-18T01:17:28.547Z,0.08
2019-01-18T01:18:36.489Z,-0.03
2019-01-18T01:19:44.544Z,0.07
2019-01-18T01:20:52.607Z,0.00
2019-01-18T01:22:01.911Z,0.02
2019-01-18T01:23:08.711Z,-0.08
2019-01-18T01:24:16.770Z,-0.14
2019-01-18T01:25:24.837Z,-0.19
2019-01-18T01:26:32.895Z,-0.18
2019-01-18T01:27:40.899Z,-0.22
2019-01-18T01:28:49.000Z,-0.23
2019-01-18T01:29:57.013Z,-0.22
2019-01-18T01:31:05.529Z,-0.23
2019-01-18T01:32:13.122Z,-0.31
2019-01-18T01:33:21.201Z,-0.26
2019-01-18T01:34:29.225Z,-0.25
2019-01-18T01:35:37.284Z,-0.37
2019-01-18T01:36:45.338Z,-0.33
2019-01-18T01:37:53.383Z,-0.31
2019-01-18T01:39:01.423Z,-0.28
2019-01-18T01:40:11.219Z,-0.25
2019-01-18T01:41:20.628Z,-0.44
2019-01-18T01:42:28.827Z,-0.39
2019-01-18T01:43:37.001Z,-0.34
2019-01-18T01:44:44.959Z,-0.43
2019-01-18T01:45:49.761Z,-0.51
2019-01-18T01:46:57.800Z,-0.42
2019-01-18T01:48:05.855Z,-0.42
2019-01-18T01:49:13.911Z,-0.39
2019-01-18T01:50:21.980Z,-0.37
2019-01-18T01:51:30.020Z,-0.42
2019-01-18T01:52:38.073Z,-0.52
2019-01-18T01:53:46.136Z,-0.55
2019-01-18T01:54:54.183Z,-0.49
2019-01-18T01:56:03.107Z,-0.47
2019-01-18T01:57:10.284Z,-0.42
2019-01-18T01:58:18.347Z,-0.49
2019-01-18T01:59:26.396Z,-0.46
2019-01-18T02:00:34.426Z,-0.57
2019-01-18T02:01:42.496Z,-0.46
2019-01-18T02:02:50.527Z,-0.55
2019-01-18T02:03:58.624Z,-0.57
2019-01-18T02:05:06.655Z,-0.54
2019-01-18T02:06:14.704Z,-0.54
2019-01-18T02:07:22.750Z,-0.58
2019-01-18T02:08:30.798Z,-0.54
2019-01-18T02:09:38.858Z,-0.65
2019-01-18T02:10:46.903Z,-0.75
2019-01-18T02:11:54.953Z,-0.76
2019-01-18T02:13:03.013Z,-0.80
2019-01-18T02:14:11.030Z,-0.76
2019-01-18T02:15:19.086Z,-0.92
2019-01-18T02:16:27.151Z,-0.94
2019-01-18T02:17:35.230Z,-0.98
2019-01-18T02:18:43.266Z,-1.05
2019-01-18T02:19:51.313Z,-1.15
2019-01-18T02:20:59.389Z,-1.30
2019-01-18T02:22:07.426Z,-1.19
2019-01-18T02:23:15.485Z,-1.34
2019-01-18T02:24:23.545Z,-1.34
2019-01-18T02:25:32.421Z,-1.41
2019-01-18T02:26:39.710Z,-1.49
2019-01-18T02:27:47.684Z,-1.55
2019-01-18T02:28:55.760Z,-1.56
2019-01-18T02:30:03.786Z,-1.74
2019-01-18T02:31:11.843Z,-1.77
2019-01-18T02:32:19.905Z,-1.84
2019-01-18T02:33:27.958Z,-1.87
2019-01-18T02:34:36.006Z,-1.95
2019-01-18T02:35:44.076Z,-2.03
2019-01-18T02:36:52.107Z,-2.09
2019-01-18T02:38:00.155Z,-2.21
2019-01-18T02:39:08.225Z,-2.26
2019-01-18T02:40:16.264Z,-2.24
2019-01-18T02:41:24.315Z,-2.32
2019-01-18T02:42:32.390Z,-2.40
2019-01-18T02:43:40.394Z,-2.46
2019-01-18T02:44:48.476Z,-2.39
2019-01-18T02:45:56.525Z,-2.52
2019-01-18T02:47:04.585Z,-2.56
2019-01-18T02:48:12.611Z,-2.58
2019-01-18T02:49:20.655Z,-2.63
2019-01-18T02:50:28.721Z,-2.63
2019-01-18T02:51:36.777Z,-2.70
2019-01-18T02:52:44.836Z,-2.67
2019-01-18T02:53:52.882Z,-2.66
2019-01-18T02:55:00.900Z,-2.67
2019-01-18T02:56:08.972Z,-2.56
2019-01-18T02:57:17.027Z,-2.55
2019-01-18T02:58:25.072Z,-2.50
2019-01-18T02:59:33.130Z,-2.46
2019-01-18T03:00:41.184Z,-2.40
2019-01-18T03:01:49.224Z,-2.40
2019-01-18T03:02:57.291Z,-2.29
2019-01-18T03:04:05.350Z,-2.09
2019-01-18T03:05:13.379Z,-1.98
2019-01-18T03:06:21.454Z,-1.98
2019-01-18T03:07:29.484Z,-1.77
2019-01-18T03:08:37.541Z,-1.79
2019-01-18T03:09:45.587Z,-1.55
2019-01-18T03:10:53.653Z,-1.55
2019-01-18T03:12:01.674Z,-1.38
2019-01-18T03:13:09.728Z,-1.30
2019-01-18T03:14:17.807Z,-1.33
2019-01-18T03:15:25.852Z,-1.34
2019-01-18T03:16:33.945Z,-1.23
2019-01-18T03:17:41.936Z,-1.23
2019-01-18T03:18:50.012Z,-1.20
2019-01-18T03:19:58.048Z,-1.23
2019-01-18T03:21:06.107Z,-1.16
2019-01-18T03:22:14.180Z,-1.13
2019-01-18T03:23:22.212Z,-1.09
2019-01-18T03:24:30.266Z,-1.04
2019-01-18T03:25:38.314Z,-1.04
2019-01-18T03:26:46.383Z,-0.98
2019-01-18T03:27:54.426Z,-1.01
2019-01-18T03:29:02.464Z,-0.91
2019-01-18T03:30:18.423Z,-1.01
2019-01-18T03:31:18.582Z,-0.94
2019-01-18T03:32:26.618Z,-0.85
2019-01-18T03:33:34.655Z,-0.82
2019-01-18T03:34:42.718Z,-0.75
2019-01-18T03:35:50.754Z,-0.76
2019-01-18T03:36:58.821Z,-0.78
2019-01-18T03:38:06.882Z,-0.78
2019-01-18T03:39:14.931Z,-0.70
2019-01-18T03:40:22.985Z,-0.65
2019-01-18T03:41:31.024Z,-0.73
2019-01-18T03:42:39.069Z,-0.69
2019-01-18T03:43:47.131Z,-0.62
2019-01-18T03:44:55.206Z,-0.67
2019-01-18T03:46:03.242Z,-0.67
2019-01-18T03:47:11.296Z,-0.67
2019-01-18T03:48:19.347Z,-0.69
2019-01-18T03:49:27.395Z,-0.76
2019-01-18T03:50:35.440Z,-0.79
2019-01-18T03:51:43.511Z,-0.67
2019-01-18T03:52:51.551Z,-0.67
2019-01-18T03:53:59.611Z,-0.76
2019-01-18T03:55:07.671Z,-0.79
2019-01-18T03:56:15.717Z,-0.82
2019-01-18T03:57:23.773Z,-0.91
2019-01-18T03:58:31.813Z,-0.97
2019-01-18T03:59:39.886Z,-0.99
2019-01-18T04:00:47.955Z,-0.94
2019-01-18T04:01:55.963Z,-0.99
2019-01-18T04:03:04.008Z,-1.05
2019-01-18T04:04:12.102Z,-1.09
2019-01-18T04:05:20.124Z,-1.12
2019-01-18T04:06:28.176Z,-1.27
2019-01-18T04:07:36.254Z,-1.30
2019-01-18T04:08:44.278Z,-1.31
2019-01-18T04:09:52.324Z,-1.37
2019-01-18T04:11:00.404Z,-1.38
2019-01-18T04:12:08.429Z,-1.33
2019-01-18T04:13:16.472Z,-1.33
2019-01-18T04:14:25.928Z,-1.34
2019-01-18T04:15:32.606Z,-1.34
2019-01-18T04:16:40.642Z,-1.30
2019-01-18T04:17:48.692Z,-1.33
2019-01-18T04:18:56.747Z,-1.20
2019-01-18T04:20:04.794Z,-1.20
2019-01-18T04:21:12.846Z,-1.20
2019-01-18T04:22:20.911Z,-1.17
2019-01-18T04:23:28.994Z,-1.05
2019-01-18T04:24:37.013Z,-1.12
2019-01-18T04:25:45.069Z,-1.13
2019-01-18T04:26:53.112Z,-1.25
2019-01-18T04:28:01.154Z,-1.23
2019-01-18T04:29:09.218Z,-1.23
2019-01-18T04:30:17.286Z,-1.17
2019-01-18T04:31:25.325Z,-1.28
2019-01-18T04:32:33.373Z,-1.12
2019-01-18T04:33:41.434Z,-1.20
2019-01-18T04:34:49.475Z,-1.22
2019-01-18T04:35:57.548Z,-1.28
2019-01-18T04:37:05.590Z,-1.09
2019-01-18T04:38:13.641Z,-1.22
2019-01-18T04:39:21.683Z,-1.13
2019-01-18T04:40:29.734Z,-1.10
2019-01-18T04:41:37.798Z,-1.15
2019-01-18T04:42:45.863Z,-1.13
2019-01-18T04:43:53.874Z,-1.15
2019-01-18T04:45:01.930Z,-1.10
2019-01-18T04:46:09.994Z,-1.23
2019-01-18T04:47:18.060Z,-1.13
2019-01-18T04:48:26.102Z,-1.25
2019-01-18T04:49:34.166Z,-1.23
2019-01-18T04:50:42.205Z,-1.34
2019-01-18T04:51:50.275Z,-1.34
2019-01-18T04:52:58.309Z,-1.33
2019-01-18T04:54:06.374Z,-1.41
2019-01-18T04:55:14.398Z,-1.38
2019-01-18T04:56:22.445Z,-1.28
2019-01-18T04:57:30.513Z,-1.34
2019-01-18T04:58:38.556Z,-1.28
2019-01-18T04:59:46.608Z,-1.33
2019-01-18T05:00:54.674Z,-1.33
2019-01-18T05:02:02.745Z,-1.35
2019-01-18T05:03:10.748Z,-1.40
2019-01-18T05:04:18.836Z,-1.35
2019-01-18T05:05:26.862Z,-1.34
2019-01-18T05:06:34.927Z,-1.20
2019-01-18T05:07:43.007Z,-1.22
2019-01-18T05:08:51.008Z,-1.25
2019-01-18T05:09:59.096Z,-1.19
2019-01-18T05:11:07.163Z,-1.15
2019-01-18T05:12:15.191Z,-1.23
2019-01-18T05:13:23.245Z,-1.13
2019-01-18T05:14:31.310Z,-1.19
2019-01-18T05:15:39.341Z,-1.20
2019-01-18T05:16:47.377Z,-1.12
2019-01-18T05:17:55.456Z,-1.20
2019-01-18T05:19:03.532Z,-1.25
2019-01-18T05:20:11.600Z,-1.25
2019-01-18T05:21:19.588Z,-1.34
2019-01-18T05:22:27.647Z,-1.35
2019-01-18T05:23:35.872Z,-1.34
2019-01-18T05:24:49.265Z,-1.30
2019-01-18T05:25:51.967Z,-1.30
2019-01-18T05:27:00.101Z,-1.35
2019-01-18T05:28:07.919Z,-1.40
2019-01-18T05:29:15.975Z,-1.38
2019-01-18T05:30:24.034Z,-1.43
2019-01-18T05:31:32.076Z,-1.43
2019-01-18T05:32:40.140Z,-1.43
2019-01-18T05:33:48.304Z,-1.52
2019-01-18T05:34:57.572Z,-1.52
2019-01-18T05:36:04.274Z,-1.55
2019-01-18T05:37:12.311Z,-1.69
2019-01-18T05:38:20.391Z,-1.72
2019-01-18T05:39:28.415Z,-1.73
2019-01-18T05:40:36.492Z,-1.77
2019-01-18T05:41:44.546Z,-1.80
2019-01-18T05:42:52.610Z,-1.80
2019-01-18T05:44:00.646Z,-1.85
2019-01-18T05:45:08.704Z,-1.91
2019-01-18T05:46:16.737Z,-1.98
2019-01-18T05:47:24.787Z,-1.98
2019-01-18T05:48:32.866Z,-1.98
2019-01-18T05:49:40.902Z,-1.97
2019-01-18T05:50:49.649Z,-1.98
2019-01-18T05:51:57.000Z,-1.91
2019-01-18T05:53:05.065Z,-1.91
2019-01-18T05:54:13.179Z,-1.97
2019-01-18T05:55:21.154Z,-1.92
2019-01-18T05:56:29.221Z,-1.90
2019-01-18T05:57:37.398Z,-1.85
2019-01-18T05:58:45.328Z,-1.95
2019-01-18T05:59:53.440Z,-1.80
2019-01-18T06:01:02.132Z,-1.80
2019-01-18T06:02:09.452Z,-1.91
2019-01-18T06:03:17.507Z,-1.79
2019-01-18T06:04:25.573Z,-1.80
2019-01-18T06:05:33.615Z,-1.74
2019-01-18T06:06:41.674Z,-1.73
2019-01-18T06:07:49.721Z,-1.73
2019-01-18T06:08:57.783Z,-1.69
2019-01-18T06:10:05.833Z,-1.66
2019-01-18T06:11:15.311Z,-1.73
2019-01-18T06:12:21.930Z,-1.58
2019-01-18T06:13:30.024Z,-1.59
2019-01-18T06:14:38.139Z,-1.59
2019-01-18T06:15:46.084Z,-1.55
2019-01-18T06:16:54.146Z,-1.43
2019-01-18T06:18:02.207Z,-1.46
2019-01-18T06:19:10.644Z,-1.41
2019-01-18T06:20:18.318Z,-1.38
2019-01-18T06:21:26.357Z,-1.28
2019-01-18T06:22:34.409Z,-1.27
2019-01-18T06:23:43.107Z,-1.35
2019-01-18T06:24:50.499Z,-1.34
2019-01-18T06:25:58.571Z,-1.38
2019-01-18T06:27:06.617Z,-1.37
2019-01-18T06:28:14.682Z,-1.38
2019-01-18T06:29:22.719Z,-1.22
2019-01-18T06:30:30.763Z,-1.23
2019-01-18T06:31:38.827Z,-1.20
2019-01-18T06:32:46.881Z,-1.20
2019-01-18T06:33:54.935Z,-1.25
2019-01-18T06:35:02.990Z,-1.09
2019-01-18T06:36:11.021Z,-1.07
2019-01-18T06:37:19.088Z,-1.12
2019-01-18T06:38:27.132Z,-1.12
2019-01-18T06:39:35.178Z,-1.25
2019-01-18T06:40:43.242Z,-1.34
2019-01-18T06:41:51.305Z,-1.34
2019-01-18T06:42:59.344Z,-1.38
2019-01-18T06:44:07.415Z,-1.46
2019-01-18T06:45:15.483Z,-1.52
2019-01-18T06:46:23.494Z,-1.56
2019-01-18T06:47:31.545Z,-1.55
2019-01-18T06:48:39.597Z,-1.77
2019-01-18T06:49:47.660Z,-1.76
2019-01-18T06:50:55.703Z,-1.88
2019-01-18T06:52:03.760Z,-1.90
2019-01-18T06:53:11.802Z,-1.95
2019-01-18T06:54:19.867Z,-1.97
2019-01-18T06:55:27.913Z,-2.15
2019-01-18T06:56:35.974Z,-2.16
2019-01-18T06:57:44.019Z,-2.32
2019-01-18T06:58:52.087Z,-2.35
2019-01-18T07:00:00.255Z,-2.35
2019-01-18T07:01:08.524Z,-2.39
2019-01-18T07:02:16.242Z,-2.48
2019-01-18T07:03:24.299Z,-2.46
2019-01-18T07:04:32.297Z,-2.46
2019-01-18T07:05:40.354Z,-2.60
2019-01-18T07:06:48.444Z,-2.46
2019-01-18T07:07:56.489Z,-2.55
2019-01-18T07:09:04.544Z,-2.53
2019-01-18T07:10:12.578Z,-2.53
2019-01-18T07:11:20.624Z,-2.58
2019-01-18T07:12:28.679Z,-2.58
2019-01-18T07:13:36.719Z,-2.61
2019-01-18T07:14:44.785Z,-2.60
2019-01-18T07:15:52.830Z,-2.63
2019-01-18T07:17:00.887Z,-2.61
2019-01-18T07:18:08.942Z,-2.64
2019-01-18T07:19:16.988Z,-2.63
2019-01-18T07:20:25.043Z,-2.60
2019-01-18T07:21:33.101Z,-2.55
2019-01-18T07:22:41.117Z,-2.55
2019-01-18T07:23:49.202Z,-2.55
2019-01-18T07:24:57.272Z,-2.48
2019-01-18T07:26:05.303Z,-2.46
2019-01-18T07:27:13.359Z,-2.40
2019-01-18T07:28:21.410Z,-2.42
2019-01-18T07:29:29.445Z,-2.45
2019-01-18T07:30:37.503Z,-2.49
2019-01-18T07:31:45.549Z,-2.52
2019-01-18T07:32:53.603Z,-2.49
2019-01-18T07:34:01.708Z,-2.49
2019-01-18T07:35:09.719Z,-2.49
2019-01-18T07:36:17.772Z,-2.46
2019-01-18T07:37:25.815Z,-2.49
2019-01-18T07:38:33.881Z,-2.40
2019-01-18T07:39:41.915Z,-2.46
2019-01-18T07:40:49.978Z,-2.40
2019-01-18T07:41:58.012Z,-2.48
2019-01-18T07:43:06.090Z,-2.40
2019-01-18T07:44:14.114Z,-2.42
2019-01-18T07:45:22.182Z,-2.45
2019-01-18T07:46:30.247Z,-2.46
2019-01-18T07:47:38.294Z,-2.35
2019-01-18T07:48:46.327Z,-2.32
2019-01-18T07:49:54.411Z,-2.24
2019-01-18T07:51:02.430Z,-2.29
2019-01-18T07:52:10.470Z,-2.26
2019-01-18T07:53:18.520Z,-2.21
2019-01-18T07:54:26.577Z,-2.21
2019-01-18T07:55:34.636Z,-2.16
2019-01-18T07:56:42.727Z,-2.03
2019-01-18T07:57:50.740Z,-2.02
2019-01-18T07:58:58.796Z,-1.98
2019-01-18T08:00:06.849Z,-1.98
2019-01-18T08:01:14.889Z,-1.85
2019-01-18T08:02:22.958Z,-1.90
2019-01-18T08:03:30.994Z,-1.92
2019-01-18T08:04:39.052Z,-1.79
2019-01-18T08:05:47.106Z,-1.91
2019-01-18T08:06:55.169Z,-1.76
2019-01-18T08:08:03.265Z,-1.76
2019-01-18T08:09:11.259Z,-1.85
2019-01-18T08:10:19.327Z,-1.84
2019-01-18T08:11:27.378Z,-1.84
2019-01-18T08:12:35.432Z,-1.77
2019-01-18T08:13:43.486Z,-1.76
2019-01-18T08:14:51.508Z,-1.72
2019-01-18T08:15:59.555Z,-1.66
2019-01-18T08:17:07.608Z,-1.66
2019-01-18T08:18:15.696Z,-1.61
2019-01-18T08:19:23.724Z,-1.51
2019-01-18T08:20:31.782Z,-1.58
2019-01-18T08:21:39.828Z,-1.45
2019-01-18T08:22:47.899Z,-1.35
2019-01-18T08:23:55.952Z,-1.41
2019-01-18T08:25:03.986Z,-1.41
2019-01-18T08:26:12.038Z,-1.38
2019-01-18T08:27:20.085Z,-1.30
2019-01-18T08:28:28.148Z,-1.27
2019-01-18T08:29:36.215Z,-1.30
2019-01-18T08:30:44.244Z,-1.27
2019-01-18T08:31:52.307Z,-1.07
2019-01-18T08:33:00.368Z,-1.04
2019-01-18T08:34:08.382Z,-1.01
2019-01-18T08:35:16.454Z,-1.01
2019-01-18T08:36:24.522Z,-0.85
2019-01-18T08:37:32.568Z,-0.85
2019-01-18T08:38:40.603Z,-0.78
2019-01-18T08:39:48.688Z,-0.72
2019-01-18T08:40:56.702Z,-0.65
2019-01-18T08:42:04.761Z,-0.69
2019-01-18T08:43:12.832Z,-0.64
2019-01-18T08:44:20.883Z,-0.58
2019-01-18T08:45:28.925Z,-0.57
2019-01-18T08:46:36.987Z,-0.58
2019-01-18T08:47:45.029Z,-0.51
2019-01-18T08:48:53.081Z,-0.42
2019-01-18T08:50:01.154Z,-0.40
2019-01-18T08:51:09.197Z,-0.33
2019-01-18T08:52:17.248Z,-0.31
2019-01-18T08:53:25.301Z,-0.22
2019-01-18T08:54:33.353Z,-0.10
2019-01-18T08:55:41.386Z,-0.16
2019-01-18T08:56:49.441Z,0.00
2019-01-18T08:57:57.510Z,-0.03
2019-01-18T08:59:05.583Z,0.13
2019-01-18T09:00:13.617Z,0.17
2019-01-18T09:01:21.697Z,0.35
2019-01-18T09:02:29.728Z,0.44
2019-01-18T09:03:37.839Z,0.53
2019-01-18T09:04:45.839Z,0.65
2019-01-18T09:05:53.877Z,0.60
2019-01-18T09:07:01.933Z,0.69
2019-01-18T09:08:09.980Z,0.87
2019-01-18T09:09:18.040Z,0.86
2019-01-18T09:10:26.075Z,0.86
2019-01-18T09:11:34.145Z,0.97
2019-01-18T09:12:42.209Z,0.88
2019-01-18T09:13:50.268Z,0.96
2019-01-18T09:14:58.305Z,1.02
2019-01-18T09:16:06.362Z,1.02
2019-01-18T09:17:14.407Z,1.06
2019-01-18T09:18:22.472Z,1.11
2019-01-18T09:19:30.549Z,1.12
2019-01-18T09:20:38.580Z,1.14
2019-01-18T09:21:46.669Z,1.12
2019-01-18T09:22:54.689Z,1.04
2019-01-18T09:24:02.771Z,1.02
2019-01-18T09:25:10.786Z,0.90
2019-01-18T09:26:18.892Z,1.05
2019-01-18T09:27:26.902Z,1.11
2019-01-18T09:28:34.966Z,1.15
2019-01-18T09:29:42.995Z,1.15
2019-01-18T09:30:51.109Z,1.12
2019-01-18T09:31:59.135Z,1.24
2019-01-18T09:33:07.229Z,1.18
2019-01-18T09:34:15.225Z,1.14
2019-01-18T09:35:23.307Z,1.09
2019-01-18T09:36:31.306Z,1.14
2019-01-18T09:37:39.399Z,1.12
2019-01-18T09:38:47.425Z,1.27
2019-01-18T09:39:55.478Z,1.26
2019-01-18T09:41:03.543Z,1.50
2019-01-18T09:42:11.606Z,1.65
2019-01-18T09:43:19.659Z,1.65
2019-01-18T09:44:27.747Z,1.87
2019-01-18T09:45:35.767Z,1.90
2019-01-18T09:46:43.808Z,1.99
2019-01-18T09:47:51.898Z,2.06
2019-01-18T09:48:59.944Z,2.20
2019-01-18T09:50:07.975Z,2.28
2019-01-18T09:51:16.046Z,2.24
2019-01-18T09:52:24.081Z,2.35
2019-01-18T09:53:32.129Z,2.36
2019-01-18T09:54:40.200Z,2.39
2019-01-18T09:55:48.250Z,2.39
2019-01-18T09:56:56.311Z,2.36
2019-01-18T09:58:04.368Z,2.27
2019-01-18T09:59:12.408Z,2.24
2019-01-18T10:00:20.488Z,2.28
2019-01-18T10:01:28.512Z,2.21
2019-01-18T10:02:36.580Z,2.16
2019-01-18T10:03:44.643Z,2.14
2019-01-18T10:04:52.699Z,2.16
2019-01-18T10:06:00.715Z,2.21
2019-01-18T10:07:08.806Z,2.25
2019-01-18T10:08:16.854Z,2.24
2019-01-18T10:09:24.908Z,2.25
2019-01-18T10:10:32.977Z,2.41
2019-01-18T10:11:40.994Z,2.31
2019-01-18T10:12:49.077Z,2.52
2019-01-18T10:13:57.138Z,2.46
2019-01-18T10:15:05.197Z,2.45
2019-01-18T10:16:13.232Z,2.59
2019-01-18T10:17:21.277Z,2.53
2019-01-18T10:18:29.424Z,2.69
2019-01-18T10:19:37.419Z,2.67
2019-01-18T10:20:45.487Z,2.74
2019-01-18T10:21:53.512Z,2.78
2019-01-18T10:23:01.567Z,2.71
2019-01-18T10:24:09.636Z,2.78
2019-01-18T10:25:17.691Z,2.87
2019-01-18T10:26:25.746Z,2.92
2019-01-18T10:27:33.787Z,2.81
2019-01-18T10:28:41.859Z,2.89
2019-01-18T10:29:49.898Z,2.95
2019-01-18T10:30:57.954Z,2.95
2019-01-18T10:32:06.038Z,2.90
2019-01-18T10:33:14.073Z,2.96
2019-01-18T10:34:22.144Z,2.90
2019-01-18T10:35:30.202Z,2.92
2019-01-18T10:36:38.234Z,2.87
2019-01-18T10:37:46.299Z,3.00
2019-01-18T10:38:54.361Z,2.93
2019-01-18T10:40:02.423Z,2.89
2019-01-18T10:41:10.471Z,2.82
2019-01-18T10:42:18.528Z,2.79
2019-01-18T10:43:26.580Z,2.81
2019-01-18T10:44:34.623Z,2.89
2019-01-18T10:45:42.697Z,2.87
2019-01-18T10:46:50.756Z,2.92
2019-01-18T10:47:59.997Z,2.79
2019-01-18T10:49:06.861Z,2.78
2019-01-18T10:50:14.903Z,2.71
2019-01-18T10:51:22.992Z,2.74
2019-01-18T10:52:30.999Z,2.66
2019-01-18T10:53:39.099Z,2.64
2019-01-18T10:54:47.140Z,2.67
2019-01-18T10:55:55.204Z,2.57
2019-01-18T10:57:03.261Z,2.60
2019-01-18T10:58:11.307Z,2.60
2019-01-18T10:59:19.383Z,2.59
2019-01-18T11:00:27.438Z,2.60
2019-01-18T11:01:35.459Z,2.64
2019-01-18T11:02:43.535Z,2.56
2019-01-18T11:03:51.576Z,2.56
2019-01-18T11:04:59.641Z,2.48
2019-01-18T11:06:07.688Z,2.63
2019-01-18T11:07:15.780Z,2.78
2019-01-18T11:08:23.805Z,2.74
2019-01-18T11:09:31.851Z,2.82
2019-01-18T11:10:39.938Z,2.82
2019-01-18T11:11:47.972Z,2.92
2019-01-18T11:12:56.035Z,2.79
2019-01-18T11:14:04.060Z,2.89
2019-01-18T11:15:12.149Z,2.90
2019-01-18T11:16:20.204Z,2.93
2019-01-18T11:17:28.244Z,3.02
2019-01-18T11:18:36.360Z,3.10
2019-01-18T11:19:44.384Z,3.23
2019-01-18T11:20:52.467Z,2.99
2019-01-18T11:22:00.473Z,2.96
2019-01-18T11:23:08.592Z,3.06
2019-01-18T11:24:16.599Z,3.21
2019-01-18T11:25:24.647Z,3.29
2019-01-18T11:26:32.694Z,3.39
2019-01-18T11:27:40.767Z,3.58
2019-01-18T11:28:48.829Z,3.76
2019-01-18T11:29:56.871Z,3.80
2019-01-18T11:31:04.926Z,3.87
2019-01-18T11:32:13.755Z,3.76
2019-01-18T11:33:21.018Z,3.69
2019-01-18T11:34:29.110Z,3.65
2019-01-18T11:35:37.166Z,3.70
2019-01-18T11:36:45.199Z,3.60
2019-01-18T11:37:53.287Z,3.51
2019-01-18T11:39:01.345Z,3.54
2019-01-18T11:40:09.373Z,3.48
2019-01-18T11:41:17.428Z,3.54
2019-01-18T11:42:25.498Z,3.42
2019-01-18T11:43:33.560Z,3.47
2019-01-18T11:44:41.653Z,3.35
2019-01-18T11:45:49.686Z,3.28
2019-01-18T11:46:57.721Z,3.26
2019-01-18T11:48:05.809Z,3.21
2019-01-18T11:49:13.839Z,3.32
2019-01-18T11:50:21.897Z,3.14
2019-01-18T11:51:29.956Z,3.24
2019-01-18T11:52:38.061Z,3.14
2019-01-18T11:53:46.058Z,3.08
2019-01-18T11:54:54.126Z,3.00
2019-01-18T11:56:02.172Z,2.96
2019-01-18T11:57:10.250Z,2.96
2019-01-18T11:58:18.305Z,2.95
2019-01-18T11:59:26.413Z,3.00
2019-01-18T12:00:37.826Z,3.00
2019-01-18T12:01:42.488Z,2.95
2019-01-18T12:02:50.546Z,2.84
2019-01-18T12:03:58.582Z,2.79
2019-01-18T12:05:06.629Z,2.75
2019-01-18T12:06:14.693Z,2.69
2019-01-18T12:07:22.737Z,2.67
2019-01-18T12:08:30.783Z,2.75
2019-01-18T12:09:38.840Z,2.79
2019-01-18T12:10:46.923Z,2.75
2019-01-18T12:11:54.978Z,2.67
2019-01-18T12:13:03.017Z,2.69
2019-01-18T12:14:11.089Z,2.63
2019-01-18T12:15:19.238Z,2.71
2019-01-18T12:16:27.199Z,2.72
2019-01-18T12:17:35.257Z,2.87
2019-01-18T12:18:43.320Z,2.87
2019-01-18T12:19:51.387Z,2.95
2019-01-18T12:20:59.431Z,3.00
2019-01-18T12:22:07.483Z,3.11
2019-01-18T12:23:15.524Z,3.05
2019-01-18T12:24:23.598Z,3.02
2019-01-18T12:25:31.644Z,3.02
2019-01-18T12:26:39.704Z,3.13
2019-01-18T12:27:47.743Z,3.00
2019-01-18T12:28:55.807Z,3.08
2019-01-18T12:30:03.906Z,3.17
2019-01-18T12:31:11.925Z,3.10
2019-01-18T12:32:19.982Z,3.17
2019-01-18T12:33:28.037Z,3.20
2019-01-18T12:34:36.076Z,3.11
2019-01-18T12:35:44.136Z,3.05
2019-01-18T12:36:58.559Z,3.17
2019-01-18T12:38:00.254Z,3.03
2019-01-18T12:39:08.324Z,2.90
2019-01-18T12:40:16.365Z,2.90
2019-01-18T12:41:24.439Z,2.85
2019-01-18T12:42:32.508Z,2.56
2019-01-18T12:43:40.534Z,2.42
2019-01-18T12:44:48.599Z,2.36
2019-01-18T12:45:56.639Z,2.39
2019-01-18T12:47:04.731Z,2.30
2019-01-18T12:48:12.767Z,2.38
2019-01-18T12:49:20.793Z,2.25
2019-01-18T12:50:28.887Z,2.23
2019-01-18T12:51:36.934Z,2.27
2019-01-18T12:52:44.978Z,2.25
2019-01-18T12:53:53.038Z,2.06
2019-01-18T12:55:01.082Z,1.99
2019-01-18T12:56:09.165Z,2.06
2019-01-18T12:57:17.233Z,2.00
2019-01-18T12:58:25.299Z,1.93
2019-01-18T12:59:33.307Z,1.88
2019-01-18T13:00:41.362Z,1.99
2019-01-18T13:01:49.449Z,2.05
2019-01-18T13:02:57.506Z,2.00
2019-01-18T13:04:08.219Z,1.98
2019-01-18T13:05:13.612Z,2.00
2019-01-18T13:06:21.653Z,2.02
2019-01-18T13:07:29.708Z,2.24
2019-01-18T13:08:37.757Z,2.24
2019-01-18T13:09:45.826Z,2.35
2019-01-18T13:10:53.860Z,2.52
2019-01-18T13:12:01.933Z,2.59
2019-01-18T13:13:09.993Z,2.61
2019-01-18T13:14:18.033Z,2.63
2019-01-18T13:15:26.094Z,2.59
2019-01-18T13:16:34.139Z,2.72
2019-01-18T13:17:42.210Z,2.69
2019-01-18T13:18:50.258Z,2.72
2019-01-18T13:19:58.312Z,2.78
2019-01-18T13:21:06.374Z,2.66
2019-01-18T13:22:14.417Z,2.72
2019-01-18T13:23:22.493Z,2.75
2019-01-18T13:24:30.545Z,2.48
2019-01-18T13:25:38.604Z,2.52
2019-01-18T13:26:46.628Z,2.54
2019-01-18T13:27:54.701Z,2.53
2019-01-18T13:29:02.740Z,2.46
2019-01-18T13:30:10.784Z,2.60
2019-01-18T13:31:18.860Z,2.53
2019-01-18T13:32:26.917Z,2.66
2019-01-18T13:33:34.974Z,2.71
2019-01-18T13:34:43.023Z,2.69
2019-01-18T13:35:51.069Z,2.64
2019-01-18T13:36:59.152Z,2.67
2019-01-18T13:38:07.181Z,2.71
2019-01-18T13:39:15.254Z,2.69
2019-01-18T13:40:23.343Z,2.74
2019-01-18T13:41:31.334Z,2.77
2019-01-18T13:42:39.415Z,2.75
2019-01-18T13:43:47.477Z,2.77
2019-01-18T13:44:55.508Z,2.66
2019-01-18T13:46:03.599Z,2.72
2019-01-18T13:47:18.069Z,2.72
2019-01-18T13:48:19.700Z,2.69
2019-01-18T13:49:27.739Z,2.67
2019-01-18T13:50:35.800Z,2.72
2019-01-18T13:51:46.197Z,2.59
2019-01-18T13:52:51.909Z,2.48
2019-01-18T13:53:59.964Z,2.57
2019-01-18T13:55:07.997Z,2.57
2019-01-18T13:56:16.096Z,2.38
2019-01-18T13:57:24.127Z,2.31
2019-01-18T13:58:32.203Z,2.17
2019-01-18T13:59:40.248Z,1.99
2019-01-18T14:00:48.344Z,2.03
2019-01-18T14:01:56.373Z,1.91
2019-01-18T14:03:04.411Z,1.86
2019-01-18T14:04:12.446Z,1.84
2019-01-18T14:05:20.504Z,1.87
2019-01-18T14:06:28.581Z,1.93
2019-01-18T14:07:36.627Z,2.00
2019-01-18T14:08:44.661Z,1.99
2019-01-18T14:09:52.785Z,1.93
2019-01-18T14:11:00.776Z,1.88
2019-01-18T14:12:08.882Z,2.06
2019-01-18T14:13:16.907Z,2.03
2019-01-18T14:14:24.964Z,1.98
2019-01-18T14:15:33.012Z,1.90
2019-01-18T14:16:41.055Z,1.87
2019-01-18T14:17:49.128Z,1.95
2019-01-18T14:18:57.173Z,1.80
2019-01-18T14:20:05.241Z,1.66
2019-01-18T14:21:13.271Z,1.69
2019-01-18T14:22:21.325Z,1.68
2019-01-18T14:23:29.382Z,1.63
2019-01-18T14:24:37.422Z,1.66
2019-01-18T14:25:45.508Z,1.70
2019-01-18T14:26:53.569Z,1.68
2019-01-18T14:28:01.634Z,1.83
2019-01-18T14:29:09.645Z,1.77
2019-01-18T14:30:17.723Z,1.84
2019-01-18T14:31:25.782Z,1.87
2019-01-18T14:32:33.816Z,1.87
2019-01-18T14:33:41.879Z,1.83
2019-01-18T14:34:49.941Z,1.88
2019-01-18T14:35:57.976Z,1.87
2019-01-18T14:37:06.040Z,1.90
2019-01-18T14:38:14.096Z,2.02
2019-01-18T14:39:22.157Z,1.90
2019-01-18T14:40:30.209Z,1.88
2019-01-18T14:41:38.254Z,1.98
2019-01-18T14:42:46.304Z,1.99
2019-01-18T14:43:54.350Z,2.00
2019-01-18T14:45:02.408Z,2.03
2019-01-18T14:46:10.475Z,1.99
2019-01-18T14:47:18.534Z,1.95
2019-01-18T14:48:26.557Z,1.91
2019-01-18T14:49:34.643Z,2.03
2019-01-18T14:50:43.426Z,2.07